sensor_id;sensor_type;location;lat;lon;timestamp;pressure;altitude;pressure_sealevel;temperature;humidity
25130;BME280;13308;50.860;13.664;2022-09-29T05:45:23;95347.28;;;6.27;100.00
25130;BME280;13308;50.860;13.664;2022-09-29T05:47:48;95346.91;;;6.09;100.00
25130;BME280;13308;50.860;13.664;2022-09-29T05:50:14;95336.63;;;6.13;100.00
25130;BME280;13308;50.860;13.664;2022-09-29T05:52:39;95341.69;;;6.14;100.00
25130;BME280;13308;50.860;13.664;2022-09-29T05:55:05;95346.75;;;6.16;100.00
25130;BME280;13308;50.860;13.664;2022-09-29T05:57:34;95351.38;;;6.35;100.00
25130;BME280;13308;50.860;13.664;2022-09-29T06:00:01;95346.84;;;6.44;100.00
25130;BME280;13308;50.860;13.664;2022-09-29T06:02:36;95356.53;;;6.49;100.00
25130;BME280;13308;50.860;13.664;2022-09-29T06:05:02;95352.75;;;6.59;100.00
25130;BME280;13308;50.860;13.664;2022-09-29T06:07:27;95356.00;;;6.54;100.00
25130;BME280;13308;50.860;13.664;2022-09-29T06:09:52;95358.75;;;6.70;100.00
25130;BME280;13308;50.860;13.664;2022-09-29T06:12:18;95363.63;;;6.62;100.00
25130;BME280;13308;50.860;13.664;2022-09-29T06:14:43;95354.72;;;6.74;100.00
25130;BME280;13308;50.860;13.664;2022-09-29T06:17:08;95355.00;;;6.80;100.00
25130;BME280;13308;50.860;13.664;2022-09-29T06:19:33;95362.50;;;6.76;100.00
25130;BME280;13308;50.860;13.664;2022-09-29T06:21:59;95353.78;;;6.81;100.00
25130;BME280;13308;50.860;13.664;2022-09-29T06:24:24;95357.72;;;6.80;100.00
25130;BME280;13308;50.860;13.664;2022-09-29T06:26:50;95354.94;;;6.96;100.00
25130;BME280;13308;50.860;13.664;2022-09-29T06:29:15;95359.31;;;7.09;100.00
25130;BME280;13308;50.860;13.664;2022-09-29T06:31:40;95365.91;;;7.12;100.00
25130;BME280;13308;50.860;13.664;2022-09-29T06:34:06;95373.69;;;7.13;100.00
25130;BME280;13308;50.860;13.664;2022-09-29T06:36:41;95375.84;;;7.50;100.00
25130;BME280;13308;50.860;13.664;2022-09-29T06:39:25;95376.31;;;7.61;100.00
25130;BME280;13308;50.860;13.664;2022-09-29T06:41:51;95373.00;;;7.95;100.00
25130;BME280;13308;50.860;13.664;2022-09-29T06:44:20;95372.47;;;8.00;100.00
25130;BME280;13308;50.860;13.664;2022-09-29T06:46:45;95370.78;;;8.31;100.00
25130;BME280;13308;50.860;13.664;2022-09-29T06:49:12;95369.69;;;8.41;100.00
25130;BME280;13308;50.860;13.664;2022-09-29T06:51:38;95365.34;;;8.77;100.00
25130;BME280;13308;50.860;13.664;2022-09-29T06:54:03;95367.00;;;8.87;100.00
25130;BME280;13308;50.860;13.664;2022-09-29T06:56:29;95374.91;;;8.97;100.00
25130;BME280;13308;50.860;13.664;2022-09-29T06:58:54;95363.88;;;9.22;100.00
25130;BME280;13308;50.860;13.664;2022-09-29T07:01:20;95376.41;;;9.23;100.00
25130;BME280;13308;50.860;13.664;2022-09-29T07:03:45;95374.06;;;9.34;100.00
25130;BME280;13308;50.860;13.664;2022-09-29T07:06:10;95375.91;;;9.37;100.00
25130;BME280;13308;50.860;13.664;2022-09-29T07:08:36;95375.78;;;9.41;100.00
25130;BME280;13308;50.860;13.664;2022-09-29T07:11:06;95375.28;;;9.55;100.00
25130;BME280;13308;50.860;13.664;2022-09-29T07:13:33;95375.09;;;9.92;100.00
25130;BME280;13308;50.860;13.664;2022-09-29T07:16:06;95371.06;;;10.27;100.00
25130;BME280;13308;50.860;13.664;2022-09-29T07:18:33;95374.72;;;10.24;100.00
25130;BME280;13308;50.860;13.664;2022-09-29T07:21:00;95375.94;;;10.54;100.00
25130;BME280;13308;50.860;13.664;2022-09-29T07:23:25;95375.63;;;10.52;100.00
25130;BME280;13308;50.860;13.664;2022-09-29T07:25:51;95377.72;;;10.78;100.00
25130;BME280;13308;50.860;13.664;2022-09-29T07:28:17;95384.06;;;10.57;100.00
25130;BME280;13308;50.860;13.664;2022-09-29T07:30:42;95375.50;;;10.64;100.00
25130;BME280;13308;50.860;13.664;2022-09-29T07:33:08;95369.47;;;10.78;100.00
25130;BME280;13308;50.860;13.664;2022-09-29T07:35:33;95381.97;;;10.70;99.07
25130;BME280;13308;50.860;13.664;2022-09-29T07:37:58;95381.72;;;10.47;98.82
25130;BME280;13308;50.860;13.664;2022-09-29T07:40:24;95396.59;;;10.49;100.00
25130;BME280;13308;50.860;13.664;2022-09-29T07:42:49;95392.03;;;10.55;99.47
25130;BME280;13308;50.860;13.664;2022-09-29T07:45:18;95392.81;;;10.95;98.76
25130;BME280;13308;50.860;13.664;2022-09-29T07:47:43;95400.25;;;11.34;95.68
25130;BME280;13308;50.860;13.664;2022-09-29T07:50:09;95408.00;;;11.66;93.20
25130;BME280;13308;50.860;13.664;2022-09-29T07:52:35;95411.22;;;11.83;91.11
25130;BME280;13308;50.860;13.664;2022-09-29T07:55:01;95423.78;;;12.20;90.13
25130;BME280;13308;50.860;13.664;2022-09-29T07:57:26;95421.19;;;12.76;89.06
25130;BME280;13308;50.860;13.664;2022-09-29T07:59:52;95438.72;;;13.23;87.79
25130;BME280;13308;50.860;13.664;2022-09-29T08:02:19;95429.34;;;12.79;85.90
25130;BME280;13308;50.860;13.664;2022-09-29T08:04:45;95428.19;;;13.04;86.04
25130;BME280;13308;50.860;13.664;2022-09-29T08:07:10;95431.66;;;13.22;85.33
25130;BME280;13308;50.860;13.664;2022-09-29T08:09:35;95429.31;;;13.53;84.12
25130;BME280;13308;50.860;13.664;2022-09-29T08:12:01;95431.97;;;13.71;84.50
25130;BME280;13308;50.860;13.664;2022-09-29T08:14:27;95428.53;;;14.14;80.67
25130;BME280;13308;50.860;13.664;2022-09-29T08:16:52;95426.44;;;14.09;80.04
25130;BME280;13308;50.860;13.664;2022-09-29T08:19:18;95419.16;;;13.50;80.96
25130;BME280;13308;50.860;13.664;2022-09-29T08:21:43;95430.16;;;14.06;80.78
25130;BME280;13308;50.860;13.664;2022-09-29T08:24:12;95422.69;;;14.50;79.55
25130;BME280;13308;50.860;13.664;2022-09-29T08:26:37;95433.88;;;14.99;79.40
25130;BME280;13308;50.860;13.664;2022-09-29T08:29:04;95436.09;;;14.95;77.56
25130;BME280;13308;50.860;13.664;2022-09-29T08:31:30;95434.56;;;14.65;80.78
25130;BME280;13308;50.860;13.664;2022-09-29T08:33:57;95444.13;;;14.93;77.02
25130;BME280;13308;50.860;13.664;2022-09-29T08:36:25;95432.91;;;14.44;73.12
25130;BME280;13308;50.860;13.664;2022-09-29T08:38:53;95441.66;;;14.95;72.89
25130;BME280;13308;50.860;13.664;2022-09-29T08:44:09;95455.97;;;15.37;72.21
25130;BME280;13308;50.860;13.664;2022-09-29T08:46:41;95453.03;;;13.92;76.06
25130;BME280;13308;50.860;13.664;2022-09-29T08:49:21;95462.91;;;13.93;76.04
25130;BME280;13308;50.860;13.664;2022-09-29T08:51:53;95463.19;;;14.71;74.46
25130;BME280;13308;50.860;13.664;2022-09-29T08:54:34;95460.53;;;14.24;75.87
25130;BME280;13308;50.860;13.664;2022-09-29T08:57:03;95464.53;;;14.00;74.88
25130;BME280;13308;50.860;13.664;2022-09-29T08:59:30;95461.69;;;14.32;75.45
25130;BME280;13308;50.860;13.664;2022-09-29T09:05:02;95461.84;;;14.52;74.68
25130;BME280;13308;50.860;13.664;2022-09-29T09:07:59;95468.25;;;14.87;74.38
25130;BME280;13308;50.860;13.664;2022-09-29T09:10:53;95462.78;;;15.36;73.77
25130;BME280;13308;50.860;13.664;2022-09-29T09:21:26;95475.09;;;16.04;68.87
25130;BME280;13308;50.860;13.664;2022-09-29T09:24:03;95472.59;;;16.06;67.15
25130;BME280;13308;50.860;13.664;2022-09-29T09:26:34;95488.09;;;15.58;70.61
25130;BME280;13308;50.860;13.664;2022-09-29T09:29:08;95480.63;;;16.64;66.49
25130;BME280;13308;50.860;13.664;2022-09-29T09:31:39;95487.19;;;16.61;64.88
25130;BME280;13308;50.860;13.664;2022-09-29T09:34:38;95491.06;;;16.69;61.21
25130;BME280;13308;50.860;13.664;2022-09-29T09:37:14;95488.06;;;15.24;68.21
25130;BME280;13308;50.860;13.664;2022-09-29T09:42:20;95487.63;;;16.14;65.13
25130;BME280;13308;50.860;13.664;2022-09-29T09:45:02;95485.28;;;16.98;62.83
25130;BME280;13308;50.860;13.664;2022-09-29T09:47:42;95489.03;;;17.46;60.41
25130;BME280;13308;50.860;13.664;2022-09-29T09:50:13;95495.50;;;17.63;61.04
25130;BME280;13308;50.860;13.664;2022-09-29T09:53:04;95502.97;;;18.30;61.43
25130;BME280;13308;50.860;13.664;2022-09-29T09:55:35;95488.09;;;17.29;59.35
25130;BME280;13308;50.860;13.664;2022-09-29T09:58:42;95495.25;;;16.79;61.93
25130;BME280;13308;50.860;13.664;2022-09-29T10:01:13;95502.00;;;17.24;62.26
25130;BME280;13308;50.860;13.664;2022-09-29T10:03:39;95493.06;;;16.89;60.61
25130;BME280;13308;50.860;13.664;2022-09-29T10:06:07;95501.38;;;16.03;63.95
25130;BME280;13308;50.860;13.664;2022-09-29T10:08:35;95487.16;;;14.45;66.75
25130;BME280;13308;50.860;13.664;2022-09-29T10:13:55;95498.41;;;14.65;68.33
25130;BME280;13308;50.860;13.664;2022-09-29T10:16:27;95492.78;;;14.13;71.82
25130;BME280;13308;50.860;13.664;2022-09-29T10:18:54;95494.22;;;13.85;73.11
25130;BME280;13308;50.860;13.664;2022-09-29T10:23:57;95493.38;;;13.46;76.21
25130;BME280;13308;50.860;13.664;2022-09-29T10:26:26;95490.72;;;13.52;79.75
25130;BME280;13308;50.860;13.664;2022-09-29T10:29:00;95500.47;;;13.38;76.79
25130;BME280;13308;50.860;13.664;2022-09-29T10:31:28;95493.97;;;13.09;77.41
25130;BME280;13308;50.860;13.664;2022-09-29T10:34:14;95496.91;;;13.05;77.92
25130;BME280;13308;50.860;13.664;2022-09-29T10:36:52;95495.50;;;13.10;77.46
25130;BME280;13308;50.860;13.664;2022-09-29T10:42:15;95495.34;;;13.78;78.57
25130;BME280;13308;50.860;13.664;2022-09-29T10:44:40;95501.22;;;14.18;77.56
25130;BME280;13308;50.860;13.664;2022-09-29T10:47:06;95504.41;;;14.49;73.67
25130;BME280;13308;50.860;13.664;2022-09-29T10:49:38;95503.81;;;14.45;70.48
25130;BME280;13308;50.860;13.664;2022-09-29T10:52:06;95505.91;;;14.50;69.29
25130;BME280;13308;50.860;13.664;2022-09-29T10:54:56;95503.44;;;14.38;70.04
25130;BME280;13308;50.860;13.664;2022-09-29T10:57:27;95504.59;;;14.60;71.57
25130;BME280;13308;50.860;13.664;2022-09-29T10:59:56;95508.03;;;14.55;73.87
25130;BME280;13308;50.860;13.664;2022-09-29T11:04:50;95514.66;;;14.20;75.91
25130;BME280;13308;50.860;13.664;2022-09-29T11:07:18;95514.81;;;13.93;75.59
25130;BME280;13308;50.860;13.664;2022-09-29T11:09:44;95513.31;;;13.83;76.23
25130;BME280;13308;50.860;13.664;2022-09-29T11:12:25;95511.13;;;13.63;75.79
25130;BME280;13308;50.860;13.664;2022-09-29T11:14:51;95514.38;;;13.62;76.77
25130;BME280;13308;50.860;13.664;2022-09-29T11:17:40;95513.69;;;13.43;76.42
25130;BME280;13308;50.860;13.664;2022-09-29T11:20:13;95508.13;;;13.43;77.33
25130;BME280;13308;50.860;13.664;2022-09-29T11:23:16;95517.41;;;13.40;78.00
25130;BME280;13308;50.860;13.664;2022-09-29T11:26:10;95521.09;;;13.37;79.00
25130;BME280;13308;50.860;13.664;2022-09-29T11:29:09;95518.22;;;13.64;76.99
25130;BME280;13308;50.860;13.664;2022-09-29T11:31:56;95526.47;;;13.73;76.25
25130;BME280;13308;50.860;13.664;2022-09-29T11:39:49;95526.16;;;13.71;79.50
25130;BME280;13308;50.860;13.664;2022-09-29T11:45:10;95526.56;;;13.55;75.64
25130;BME280;13308;50.860;13.664;2022-09-29T11:53:58;95536.22;;;13.27;73.85
25130;BME280;13308;50.860;13.664;2022-09-29T11:56:45;95536.38;;;13.24;75.09
25130;BME280;13308;50.860;13.664;2022-09-29T11:59:50;95538.72;;;13.16;76.96
25130;BME280;13308;50.860;13.664;2022-09-29T12:02:37;95544.41;;;13.13;76.96
25130;BME280;13308;50.860;13.664;2022-09-29T12:05:18;95542.72;;;13.15;77.10
25130;BME280;13308;50.860;13.664;2022-09-29T12:10:57;95538.66;;;13.34;74.79
25130;BME280;13308;50.860;13.664;2022-09-29T12:13:46;95529.03;;;13.53;74.32
25130;BME280;13308;50.860;13.664;2022-09-29T12:16:17;95532.63;;;13.68;75.08
25130;BME280;13308;50.860;13.664;2022-09-29T12:18:49;95531.22;;;14.05;74.23
25130;BME280;13308;50.860;13.664;2022-09-29T12:21:24;95540.25;;;14.38;72.08
25130;BME280;13308;50.860;13.664;2022-09-29T12:23:51;95535.84;;;14.84;71.37
25130;BME280;13308;50.860;13.664;2022-09-29T12:26:21;95538.72;;;15.04;71.38
25130;BME280;13308;50.860;13.664;2022-09-29T12:29:21;95549.44;;;15.55;66.94
25130;BME280;13308;50.860;13.664;2022-09-29T12:31:52;95540.91;;;16.07;69.09
25130;BME280;13308;50.860;13.664;2022-09-29T12:37:28;95540.66;;;16.91;65.51
25130;BME280;13308;50.860;13.664;2022-09-29T12:43:04;95556.03;;;18.88;58.32
25130;BME280;13308;50.860;13.664;2022-09-29T12:45:45;95552.16;;;18.64;58.13
25130;BME280;13308;50.860;13.664;2022-09-29T12:56:31;95544.91;;;16.06;63.73
25130;BME280;13308;50.860;13.664;2022-09-29T12:59:06;95542.56;;;16.19;66.03
25130;BME280;13308;50.860;13.664;2022-09-29T13:01:35;95540.84;;;16.22;67.75
25130;BME280;13308;50.860;13.664;2022-09-29T13:12:50;95551.59;;;16.14;65.43
25130;BME280;13308;50.860;13.664;2022-09-29T13:15:28;95545.34;;;16.19;65.45
25130;BME280;13308;50.860;13.664;2022-09-29T13:18:30;95547.00;;;15.42;63.93
25130;BME280;13308;50.860;13.664;2022-09-29T13:22:04;95546.19;;;15.27;65.38
25130;BME280;13308;50.860;13.664;2022-09-29T13:27:31;95551.75;;;15.27;66.24
25130;BME280;13308;50.860;13.664;2022-09-29T13:32:46;95559.00;;;14.96;66.53
25130;BME280;13308;50.860;13.664;2022-09-29T13:35:17;95555.00;;;15.11;67.87
25130;BME280;13308;50.860;13.664;2022-09-29T13:38:02;95547.22;;;15.01;69.47
25130;BME280;13308;50.860;13.664;2022-09-29T13:40:29;95554.25;;;15.11;70.24
25130;BME280;13308;50.860;13.664;2022-09-29T13:42:57;95555.19;;;15.22;70.71
25130;BME280;13308;50.860;13.664;2022-09-29T13:47:54;95542.91;;;14.85;75.60
25130;BME280;13308;50.860;13.664;2022-09-29T13:55:49;95541.78;;;14.77;76.76
25130;BME280;13308;50.860;13.664;2022-09-29T13:58:27;95542.91;;;14.85;74.96
25130;BME280;13308;50.860;13.664;2022-09-29T14:00:55;95544.75;;;14.88;76.34
25130;BME280;13308;50.860;13.664;2022-09-29T14:03:30;95542.34;;;15.10;75.84
25130;BME280;13308;50.860;13.664;2022-09-29T14:06:13;95547.16;;;15.10;72.74
25130;BME280;13308;50.860;13.664;2022-09-29T14:09:03;95551.75;;;16.25;72.06
25130;BME280;13308;50.860;13.664;2022-09-29T14:11:39;95552.88;;;17.44;68.62
25130;BME280;13308;50.860;13.664;2022-09-29T14:14:38;95556.09;;;16.66;69.87
25130;BME280;13308;50.860;13.664;2022-09-29T14:17:30;95558.69;;;16.15;70.03
25130;BME280;13308;50.860;13.664;2022-09-29T14:20:12;95562.53;;;15.83;71.61
25130;BME280;13308;50.860;13.664;2022-09-29T14:27:39;95559.66;;;14.76;78.29
25130;BME280;13308;50.860;13.664;2022-09-29T14:30:23;95559.41;;;14.27;81.48
25130;BME280;13308;50.860;13.664;2022-09-29T14:33:10;95558.50;;;14.30;81.30
25130;BME280;13308;50.860;13.664;2022-09-29T14:35:40;95563.75;;;14.28;81.23
25130;BME280;13308;50.860;13.664;2022-09-29T14:40:56;95571.25;;;14.51;81.20
25130;BME280;13308;50.860;13.664;2022-09-29T14:55:09;95585.88;;;14.75;80.62
25130;BME280;13308;50.860;13.664;2022-09-29T15:03:31;95579.06;;;14.62;81.26
25130;BME280;13308;50.860;13.664;2022-09-29T15:06:08;95588.94;;;14.77;78.96
25130;BME280;13308;50.860;13.664;2022-09-29T15:08:34;95589.19;;;14.65;77.68
25130;BME280;13308;50.860;13.664;2022-09-29T15:11:01;95589.47;;;14.52;78.36
25130;BME280;13308;50.860;13.664;2022-09-29T15:13:29;95591.94;;;14.27;80.63
25130;BME280;13308;50.860;13.664;2022-09-29T15:16:20;95591.25;;;14.08;78.40
25130;BME280;13308;50.860;13.664;2022-09-29T15:22:13;95594.09;;;13.67;80.17
25130;BME280;13308;50.860;13.664;2022-09-29T15:24:55;95602.91;;;13.47;81.59
25130;BME280;13308;50.860;13.664;2022-09-29T15:27:24;95610.00;;;13.48;81.30
25130;BME280;13308;50.860;13.664;2022-09-29T15:29:54;95602.34;;;13.34;82.63
25130;BME280;13308;50.860;13.664;2022-09-29T15:32:22;95611.28;;;13.29;83.70
25130;BME280;13308;50.860;13.664;2022-09-29T15:34:50;95605.91;;;13.17;85.80
25130;BME280;13308;50.860;13.664;2022-09-29T15:37:16;95610.41;;;13.05;84.79
25130;BME280;13308;50.860;13.664;2022-09-29T15:39:46;95608.38;;;13.06;85.48
25130;BME280;13308;50.860;13.664;2022-09-29T15:42:22;95615.63;;;12.85;87.05
25130;BME280;13308;50.860;13.664;2022-09-29T15:44:58;95621.00;;;12.80;86.19
25130;BME280;13308;50.860;13.664;2022-09-29T15:47:33;95623.75;;;12.44;90.63
25130;BME280;13308;50.860;13.664;2022-09-29T15:50:03;95622.66;;;12.41;89.29
25130;BME280;13308;50.860;13.664;2022-09-29T15:52:29;95619.44;;;12.25;90.61
25130;BME280;13308;50.860;13.664;2022-09-29T15:54:57;95623.72;;;12.17;92.53
25130;BME280;13308;50.860;13.664;2022-09-29T16:05:38;95642.63;;;11.79;98.31
25130;BME280;13308;50.860;13.664;2022-09-29T16:08:18;95653.69;;;11.57;100.00
25130;BME280;13308;50.860;13.664;2022-09-29T16:10:49;95656.47;;;11.57;100.00
25130;BME280;13308;50.860;13.664;2022-09-29T16:13:20;95664.44;;;11.55;100.00
25130;BME280;13308;50.860;13.664;2022-09-29T16:15:47;95667.78;;;11.50;100.00
25130;BME280;13308;50.860;13.664;2022-09-29T16:18:19;95663.00;;;11.51;100.00
25130;BME280;13308;50.860;13.664;2022-09-29T16:20:46;95673.72;;;11.40;100.00
25130;BME280;13308;50.860;13.664;2022-09-29T16:25:44;95671.19;;;11.11;100.00
25130;BME280;13308;50.860;13.664;2022-09-29T16:28:24;95678.25;;;11.12;100.00
25130;BME280;13308;50.860;13.664;2022-09-29T16:31:04;95677.41;;;11.03;100.00
25130;BME280;13308;50.860;13.664;2022-09-29T16:33:32;95678.03;;;10.98;100.00
25130;BME280;13308;50.860;13.664;2022-09-29T16:36:16;95683.53;;;10.98;100.00
25130;BME280;13308;50.860;13.664;2022-09-29T16:38:47;95681.47;;;10.89;100.00
25130;BME280;13308;50.860;13.664;2022-09-29T16:41:29;95688.78;;;10.83;100.00
25130;BME280;13308;50.860;13.664;2022-09-29T16:44:03;95684.41;;;10.73;100.00
25130;BME280;13308;50.860;13.664;2022-09-29T16:46:32;95686.94;;;10.68;100.00
25130;BME280;13308;50.860;13.664;2022-09-29T16:48:58;95692.88;;;10.79;100.00
25130;BME280;13308;50.860;13.664;2022-09-29T16:51:23;95689.81;;;10.64;100.00
25130;BME280;13308;50.860;13.664;2022-09-29T16:53:50;95699.66;;;10.65;100.00
25130;BME280;13308;50.860;13.664;2022-09-29T16:56:28;95708.56;;;10.69;100.00
25130;BME280;13308;50.860;13.664;2022-09-29T16:59:07;95716.53;;;10.67;100.00
25130;BME280;13308;50.860;13.664;2022-09-29T17:01:36;95719.59;;;10.69;100.00
25130;BME280;13308;50.860;13.664;2022-09-29T17:04:01;95722.09;;;10.76;100.00
25130;BME280;13308;50.860;13.664;2022-09-29T17:06:28;95725.53;;;10.68;100.00
25130;BME280;13308;50.860;13.664;2022-09-29T17:08:53;95717.75;;;10.66;100.00
25130;BME280;13308;50.860;13.664;2022-09-29T17:11:19;95728.09;;;10.62;100.00
25130;BME280;13308;50.860;13.664;2022-09-29T17:13:44;95730.13;;;10.49;100.00
25130;BME280;13308;50.860;13.664;2022-09-29T17:16:10;95736.50;;;10.46;100.00
25130;BME280;13308;50.860;13.664;2022-09-29T17:18:36;95736.19;;;10.44;100.00
25130;BME280;13308;50.860;13.664;2022-09-29T17:21:02;95733.66;;;10.37;100.00
25130;BME280;13308;50.860;13.664;2022-09-29T17:23:27;95736.19;;;10.32;100.00
25130;BME280;13308;50.860;13.664;2022-09-29T17:25:53;95732.47;;;10.26;100.00
25130;BME280;13308;50.860;13.664;2022-09-29T17:28:38;95736.44;;;10.25;100.00
25130;BME280;13308;50.860;13.664;2022-09-29T17:31:04;95729.81;;;10.22;100.00
25130;BME280;13308;50.860;13.664;2022-09-29T17:33:30;95738.63;;;10.17;100.00
25130;BME280;13308;50.860;13.664;2022-09-29T17:35:55;95735.25;;;10.13;100.00
25130;BME280;13308;50.860;13.664;2022-09-29T17:38:21;95740.19;;;10.06;100.00
